< < Back
Terminal Aerodrome Forecast


Current Version              Previous Versions:   1  2  3  4  5  6  7  8  9  

Terminal Aerodrome Forecast

092
FTUS44 KBMX 261120
TAFANB
TAF
KANB 261120Z 2612/2712 12003KT P6SM SKC
     FM261700 18005KT P6SM SCT060
     FM262300 23005KT P6SM SCT070 PROB30 2623/2704 5SM -TSRA
      BKN050CB=

Latest METAR

302
SAUS70 KWBC 261700
MTRANB
METAR KANB 261653Z AUTO VRB06KT 10SM CLR 31/17 A3005 RMK AO2 SLP167
T03110172


USA.gov is the U.S. government's official web portal to all federal, state and local government web resources and services.